Accueil
METAR-TAF:

METAR-TAF

Aéroports :

Aéroport international de Pécs-Pogány

Pécs, Hongrie

latitude: 46-06N, longitude: 018-14E, altitude: 201 m

Observation

Le bulletin a été fait il y a 1 heure et 14 minutes, à 00:15 UTC
Vent 4 kt de est/sud-est
Température 11°C
Humidité 82%
Pression 1027 hPa
Visibilité 10 km ou plus
pas de nuages en-dessous de 1500 mètres et pas de cumulonimbus.

METAR: LHPP 060015Z AUTO 12004KT CAVOK 11/08 Q1027

Heure: 03:29 (01:29 UTC)

Prévision

Le bulletin a été fait il y a 11 heures et 14 minutes, à 14:15 UTC
Prévision valable du 05 à 15 UTC au 05 à 24 UTC
Vent 5 kt de sud-est
Visibilité 10 km ou plus
pas de nuages en-dessous de 1500 mètres et pas de cumulonimbus.

TAF: LHPP 051415Z 0515/0524 14005KT CAVOK

Observations et prévisions météorologiques de plus de 4000 aéroports (messages METAR et TAF).

Les stations disponibles sont représentées par des disques jaunes et rouges sur la carte.

Passer la souris dessus pour voir le nom de la station.

Cliquer dessus pour voir les observations et prévisions météorologiques.

Pour changer de carte: cliquez sur les boutons verts avec une croix noire pour zoomer, sur le bouton vert avec un tiret pour effectuer un zoom arrière, ou sur les flèches vertes pour les cartes adjacentes.


METAR-TAF: